sensor_id;sensor_type;location;lat;lon;timestamp;pressure;altitude;pressure_sealevel;temperature;humidity
38780;BME280;29273;49.962;9.768;2023-02-20T00:01:12;100797.13;;;12.18;54.23
38780;BME280;29273;49.962;9.768;2023-02-20T00:03:38;100789.16;;;12.18;53.97
38780;BME280;29273;49.962;9.768;2023-02-20T00:06:04;100774.06;;;12.18;53.58
38780;BME280;29273;49.962;9.768;2023-02-20T00:08:30;100776.06;;;12.16;53.70
38780;BME280;29273;49.962;9.768;2023-02-20T00:10:55;100792.19;;;12.15;53.47
38780;BME280;29273;49.962;9.768;2023-02-20T00:13:21;100784.41;;;12.13;53.31
38780;BME280;29273;49.962;9.768;2023-02-20T00:15:46;100779.66;;;12.09;53.51
38780;BME280;29273;49.962;9.768;2023-02-20T00:18:12;100773.34;;;12.10;53.50
38780;BME280;29273;49.962;9.768;2023-02-20T00:20:37;100755.13;;;12.07;53.75
38780;BME280;29273;49.962;9.768;2023-02-20T00:23:03;100748.38;;;12.04;53.56
38780;BME280;29273;49.962;9.768;2023-02-20T00:25:28;100750.38;;;12.02;53.48
38780;BME280;29273;49.962;9.768;2023-02-20T00:27:54;100756.06;;;11.99;53.46
38780;BME280;29273;49.962;9.768;2023-02-20T00:30:22;100758.09;;;11.97;53.74
38780;BME280;29273;49.962;9.768;2023-02-20T00:32:51;100754.63;;;11.96;53.55
38780;BME280;29273;49.962;9.768;2023-02-20T00:35:19;100757.34;;;11.88;53.61
38780;BME280;29273;49.962;9.768;2023-02-20T00:37:46;100754.88;;;11.87;53.52
38780;BME280;29273;49.962;9.768;2023-02-20T00:40:13;100753.44;;;11.84;53.78
38780;BME280;29273;49.962;9.768;2023-02-20T00:42:39;100756.47;;;11.81;53.79
38780;BME280;29273;49.962;9.768;2023-02-20T00:45:05;100754.19;;;11.78;53.60
38780;BME280;29273;49.962;9.768;2023-02-20T00:47:31;100752.72;;;11.75;53.86
38780;BME280;29273;49.962;9.768;2023-02-20T00:49:57;100754.09;;;11.71;53.89
38780;BME280;29273;49.962;9.768;2023-02-20T00:52:22;100758.97;;;11.68;53.85
38780;BME280;29273;49.962;9.768;2023-02-20T00:54:48;100761.63;;;11.68;53.82
38780;BME280;29273;49.962;9.768;2023-02-20T00:57:14;100762.81;;;11.65;53.56
38780;BME280;29273;49.962;9.768;2023-02-20T00:59:39;100764.19;;;11.61;53.71
38780;BME280;29273;49.962;9.768;2023-02-20T01:02:05;100766.00;;;11.60;53.53
38780;BME280;29273;49.962;9.768;2023-02-20T01:04:33;100772.69;;;11.56;53.68
38780;BME280;29273;49.962;9.768;2023-02-20T01:07:01;100769.41;;;11.54;53.77
38780;BME280;29273;49.962;9.768;2023-02-20T01:09:26;100777.72;;;11.51;53.61
38780;BME280;29273;49.962;9.768;2023-02-20T01:11:53;100774.25;;;11.51;53.61
38780;BME280;29273;49.962;9.768;2023-02-20T01:14:19;100776.25;;;11.48;53.85
38780;BME280;29273;49.962;9.768;2023-02-20T01:16:50;100778.19;;;11.55;53.70
38780;BME280;29273;49.962;9.768;2023-02-20T01:19:17;100769.97;;;11.50;53.84
38780;BME280;29273;49.962;9.768;2023-02-20T01:21:43;100770.94;;;11.48;53.71
38780;BME280;29273;49.962;9.768;2023-02-20T01:24:10;100769.78;;;11.51;53.59
38780;BME280;29273;49.962;9.768;2023-02-20T01:26:36;100767.75;;;11.53;53.67
38780;BME280;29273;49.962;9.768;2023-02-20T01:29:02;100768.38;;;11.55;53.50
38780;BME280;29273;49.962;9.768;2023-02-20T01:31:29;100775.97;;;11.58;53.48
38780;BME280;29273;49.962;9.768;2023-02-20T01:33:55;100774.31;;;11.57;53.43
38780;BME280;29273;49.962;9.768;2023-02-20T01:36:20;100774.13;;;11.59;53.83
38780;BME280;29273;49.962;9.768;2023-02-20T01:38:46;100771.13;;;11.62;53.70
38780;BME280;29273;49.962;9.768;2023-02-20T01:41:13;100765.63;;;11.63;53.44
38780;BME280;29273;49.962;9.768;2023-02-20T01:43:40;100771.56;;;11.65;53.60
38780;BME280;29273;49.962;9.768;2023-02-20T01:49:05;100762.06;;;11.71;53.41
38780;BME280;29273;49.962;9.768;2023-02-20T01:51:34;100761.03;;;11.72;53.79
38780;BME280;29273;49.962;9.768;2023-02-20T01:54:02;100757.56;;;11.72;53.80
38780;BME280;29273;49.962;9.768;2023-02-20T01:56:30;100746.16;;;11.71;53.74
38780;BME280;29273;49.962;9.768;2023-02-20T01:58:56;100734.69;;;11.71;53.66
38780;BME280;29273;49.962;9.768;2023-02-20T02:01:21;100727.38;;;11.73;53.72
38780;BME280;29273;49.962;9.768;2023-02-20T02:03:52;100704.75;;;11.77;53.47
38780;BME280;29273;49.962;9.768;2023-02-20T02:06:21;100706.16;;;11.73;53.46
38780;BME280;29273;49.962;9.768;2023-02-20T02:08:50;100715.75;;;11.74;53.56
38780;BME280;29273;49.962;9.768;2023-02-20T02:11:22;100722.53;;;11.76;53.68
38780;BME280;29273;49.962;9.768;2023-02-20T02:13:48;100722.06;;;11.73;53.51
38780;BME280;29273;49.962;9.768;2023-02-20T02:19:11;100727.03;;;11.76;53.65
38780;BME280;29273;49.962;9.768;2023-02-20T02:22:08;100723.72;;;11.74;53.69
38780;BME280;29273;49.962;9.768;2023-02-20T02:24:59;100726.16;;;11.75;53.68
38780;BME280;29273;49.962;9.768;2023-02-20T02:27:53;100719.44;;;11.73;53.52
38780;BME280;29273;49.962;9.768;2023-02-20T02:38:46;100710.19;;;11.69;53.47
38780;BME280;29273;49.962;9.768;2023-02-20T02:41:44;100709.53;;;11.66;53.67
38780;BME280;29273;49.962;9.768;2023-02-20T02:44:34;100704.34;;;11.58;53.18
38780;BME280;29273;49.962;9.768;2023-02-20T02:47:15;100702.91;;;11.56;53.42
38780;BME280;29273;49.962;9.768;2023-02-20T02:52:20;100701.34;;;11.46;53.73
38780;BME280;29273;49.962;9.768;2023-02-20T02:55:18;100703.56;;;11.43;53.81
38780;BME280;29273;49.962;9.768;2023-02-20T02:57:45;100701.81;;;11.35;54.46
38780;BME280;29273;49.962;9.768;2023-02-20T03:03:08;100710.50;;;11.29;53.99
38780;BME280;29273;49.962;9.768;2023-02-20T03:05:46;100699.91;;;11.29;53.94
38780;BME280;29273;49.962;9.768;2023-02-20T03:08:37;100696.34;;;11.22;53.80
38780;BME280;29273;49.962;9.768;2023-02-20T03:11:07;100700.84;;;11.21;53.78
38780;BME280;29273;49.962;9.768;2023-02-20T03:13:44;100699.19;;;11.20;53.85
38780;BME280;29273;49.962;9.768;2023-02-20T03:19:34;100695.00;;;11.11;53.76
38780;BME280;29273;49.962;9.768;2023-02-20T03:22:01;100696.53;;;11.05;53.87
38780;BME280;29273;49.962;9.768;2023-02-20T03:24:31;100695.91;;;11.03;53.96
38780;BME280;29273;49.962;9.768;2023-02-20T03:26:58;100694.63;;;10.99;53.88
38780;BME280;29273;49.962;9.768;2023-02-20T03:29:33;100704.22;;;11.00;53.67
38780;BME280;29273;49.962;9.768;2023-02-20T03:32:05;100692.97;;;10.98;53.90
38780;BME280;29273;49.962;9.768;2023-02-20T03:34:51;100689.41;;;10.91;54.16
38780;BME280;29273;49.962;9.768;2023-02-20T03:37:38;100689.59;;;10.89;53.91
38780;BME280;29273;49.962;9.768;2023-02-20T03:40:24;100682.19;;;10.85;53.94
38780;BME280;29273;49.962;9.768;2023-02-20T03:43:12;100684.03;;;10.84;53.77
38780;BME280;29273;49.962;9.768;2023-02-20T03:45:59;100689.50;;;10.83;53.85
38780;BME280;29273;49.962;9.768;2023-02-20T03:48:32;100687.22;;;10.80;53.54
38780;BME280;29273;49.962;9.768;2023-02-20T03:51:01;100690.56;;;10.73;54.07
38780;BME280;29273;49.962;9.768;2023-02-20T03:53:32;100685.63;;;10.70;53.95
38780;BME280;29273;49.962;9.768;2023-02-20T03:56:00;100686.28;;;10.72;53.61
38780;BME280;29273;49.962;9.768;2023-02-20T03:58:28;100688.47;;;10.69;53.79
38780;BME280;29273;49.962;9.768;2023-02-20T04:00:59;100697.25;;;10.69;53.56
38780;BME280;29273;49.962;9.768;2023-02-20T04:03:30;100705.56;;;10.66;53.61
38780;BME280;29273;49.962;9.768;2023-02-20T04:05:58;100718.50;;;10.61;53.77
38780;BME280;29273;49.962;9.768;2023-02-20T04:08:37;100705.09;;;10.63;53.74
38780;BME280;29273;49.962;9.768;2023-02-20T04:11:18;100707.06;;;10.61;53.65
38780;BME280;29273;49.962;9.768;2023-02-20T04:13:47;100710.94;;;10.58;54.08
38780;BME280;29273;49.962;9.768;2023-02-20T04:16:14;100712.09;;;10.55;54.29
38780;BME280;29273;49.962;9.768;2023-02-20T04:18:40;100713.75;;;10.57;54.36
38780;BME280;29273;49.962;9.768;2023-02-20T04:21:15;100714.03;;;10.62;54.16
38780;BME280;29273;49.962;9.768;2023-02-20T04:23:44;100713.56;;;10.58;54.26
38780;BME280;29273;49.962;9.768;2023-02-20T04:26:18;100715.88;;;10.61;53.98
38780;BME280;29273;49.962;9.768;2023-02-20T04:28:46;100698.84;;;10.55;54.13
38780;BME280;29273;49.962;9.768;2023-02-20T04:31:15;100689.91;;;10.57;54.09
38780;BME280;29273;49.962;9.768;2023-02-20T04:33:42;100695.75;;;10.52;53.96
38780;BME280;29273;49.962;9.768;2023-02-20T04:36:16;100707.53;;;10.49;53.63
38780;BME280;29273;49.962;9.768;2023-02-20T04:38:42;100711.69;;;10.44;53.33
38780;BME280;29273;49.962;9.768;2023-02-20T04:41:11;100707.59;;;10.41;53.56
38780;BME280;29273;49.962;9.768;2023-02-20T04:43:38;100707.94;;;10.38;53.52
38780;BME280;29273;49.962;9.768;2023-02-20T04:46:04;100706.81;;;10.32;53.29
38780;BME280;29273;49.962;9.768;2023-02-20T04:48:30;100707.34;;;10.28;53.56
38780;BME280;29273;49.962;9.768;2023-02-20T04:50:56;100720.94;;;10.25;53.42
38780;BME280;29273;49.962;9.768;2023-02-20T04:53:22;100718.63;;;10.22;53.49
38780;BME280;29273;49.962;9.768;2023-02-20T04:55:48;100714.88;;;10.16;53.60
38780;BME280;29273;49.962;9.768;2023-02-20T04:58:18;100712.59;;;10.13;53.56
38780;BME280;29273;49.962;9.768;2023-02-20T05:00:50;100713.91;;;10.09;53.95
38780;BME280;29273;49.962;9.768;2023-02-20T05:03:15;100724.69;;;10.07;53.41
38780;BME280;29273;49.962;9.768;2023-02-20T05:05:41;100720.75;;;10.03;53.89
38780;BME280;29273;49.962;9.768;2023-02-20T05:08:07;100722.75;;;10.01;53.84
38780;BME280;29273;49.962;9.768;2023-02-20T05:10:33;100716.63;;;10.00;53.72
38780;BME280;29273;49.962;9.768;2023-02-20T05:13:00;100726.72;;;9.97;53.54
38780;BME280;29273;49.962;9.768;2023-02-20T05:15:26;100714.53;;;9.96;53.80
38780;BME280;29273;49.962;9.768;2023-02-20T05:17:52;100710.56;;;9.92;53.97
38780;BME280;29273;49.962;9.768;2023-02-20T05:20:18;100708.91;;;9.91;53.90
38780;BME280;29273;49.962;9.768;2023-02-20T05:22:44;100703.81;;;9.89;53.83
38780;BME280;29273;49.962;9.768;2023-02-20T05:25:10;100701.50;;;9.86;53.96
38780;BME280;29273;49.962;9.768;2023-02-20T05:27:36;100695.38;;;9.86;53.87
38780;BME280;29273;49.962;9.768;2023-02-20T05:30:02;100694.72;;;9.84;53.90
38780;BME280;29273;49.962;9.768;2023-02-20T05:32:29;100695.56;;;9.84;53.66
38780;BME280;29273;49.962;9.768;2023-02-20T05:34:55;100698.56;;;9.81;53.83
38780;BME280;29273;49.962;9.768;2023-02-20T05:37:22;100701.38;;;9.79;53.58
38780;BME280;29273;49.962;9.768;2023-02-20T05:39:48;100700.53;;;9.79;53.78
38780;BME280;29273;49.962;9.768;2023-02-20T05:42:15;100688.16;;;9.79;53.88
38780;BME280;29273;49.962;9.768;2023-02-20T05:44:41;100693.78;;;9.76;53.83
38780;BME280;29273;49.962;9.768;2023-02-20T05:47:07;100697.25;;;9.77;54.05
38780;BME280;29273;49.962;9.768;2023-02-20T05:49:33;100701.72;;;9.76;53.94
38780;BME280;29273;49.962;9.768;2023-02-20T05:52:00;100701.72;;;9.76;54.09
38780;BME280;29273;49.962;9.768;2023-02-20T05:54:26;100693.16;;;9.74;54.04
38780;BME280;29273;49.962;9.768;2023-02-20T05:56:51;100696.78;;;9.73;54.08
38780;BME280;29273;49.962;9.768;2023-02-20T05:59:20;100694.59;;;9.77;53.78
38780;BME280;29273;49.962;9.768;2023-02-20T06:01:46;100690.84;;;9.71;53.77
38780;BME280;29273;49.962;9.768;2023-02-20T06:04:12;100691.03;;;9.70;54.05
38780;BME280;29273;49.962;9.768;2023-02-20T06:06:39;100691.84;;;9.70;53.82
38780;BME280;29273;49.962;9.768;2023-02-20T06:09:07;100695.66;;;9.68;53.79
38780;BME280;29273;49.962;9.768;2023-02-20T06:11:35;100707.56;;;9.63;53.88
38780;BME280;29273;49.962;9.768;2023-02-20T06:14:02;100707.91;;;9.60;53.93
38780;BME280;29273;49.962;9.768;2023-02-20T06:16:28;100715.03;;;9.60;54.14
38780;BME280;29273;49.962;9.768;2023-02-20T06:18:55;100698.69;;;9.56;54.27
38780;BME280;29273;49.962;9.768;2023-02-20T06:21:22;100703.13;;;9.56;54.35
38780;BME280;29273;49.962;9.768;2023-02-20T06:23:49;100698.69;;;9.56;54.47
38780;BME280;29273;49.962;9.768;2023-02-20T06:26:16;100691.75;;;9.55;54.76
38780;BME280;29273;49.962;9.768;2023-02-20T06:28:42;100686.63;;;9.54;54.87
38780;BME280;29273;49.962;9.768;2023-02-20T06:31:09;100688.28;;;9.55;54.75
38780;BME280;29273;49.962;9.768;2023-02-20T06:33:34;100692.94;;;9.53;54.96
38780;BME280;29273;49.962;9.768;2023-02-20T06:36:00;100692.09;;;9.52;54.90
38780;BME280;29273;49.962;9.768;2023-02-20T06:38:26;100687.81;;;9.51;54.98
38780;BME280;29273;49.962;9.768;2023-02-20T06:40:52;100706.16;;;9.53;54.89
38780;BME280;29273;49.962;9.768;2023-02-20T06:43:18;100697.56;;;9.51;55.17
38780;BME280;29273;49.962;9.768;2023-02-20T06:45:44;100700.19;;;9.51;54.99
38780;BME280;29273;49.962;9.768;2023-02-20T06:48:11;100708.13;;;9.51;55.10
38780;BME280;29273;49.962;9.768;2023-02-20T06:50:39;100708.97;;;9.51;55.13
38780;BME280;29273;49.962;9.768;2023-02-20T06:53:06;100702.66;;;9.52;55.25
38780;BME280;29273;49.962;9.768;2023-02-20T06:55:32;100689.63;;;9.51;55.38
38780;BME280;29273;49.962;9.768;2023-02-20T06:57:57;100696.72;;;9.50;55.41
38780;BME280;29273;49.962;9.768;2023-02-20T07:00:23;100709.97;;;9.50;55.54
38780;BME280;29273;49.962;9.768;2023-02-20T07:02:50;100716.91;;;9.51;55.62
38780;BME280;29273;49.962;9.768;2023-02-20T07:05:15;100711.78;;;9.50;55.86
38780;BME280;29273;49.962;9.768;2023-02-20T07:07:41;100707.31;;;9.50;55.83
38780;BME280;29273;49.962;9.768;2023-02-20T07:10:07;100703.69;;;9.51;56.00
38780;BME280;29273;49.962;9.768;2023-02-20T07:12:33;100703.50;;;9.53;56.03
38780;BME280;29273;49.962;9.768;2023-02-20T07:15:03;100699.69;;;9.55;56.07
38780;BME280;29273;49.962;9.768;2023-02-20T07:17:29;100687.47;;;9.54;56.14
38780;BME280;29273;49.962;9.768;2023-02-20T07:19:55;100684.63;;;9.56;56.14
38780;BME280;29273;49.962;9.768;2023-02-20T07:22:20;100688.94;;;9.57;56.19
38780;BME280;29273;49.962;9.768;2023-02-20T07:24:52;100683.94;;;9.62;55.65
38780;BME280;29273;49.962;9.768;2023-02-20T07:27:19;100693.88;;;9.60;56.22
38780;BME280;29273;49.962;9.768;2023-02-20T07:29:45;100690.25;;;9.61;56.32
38780;BME280;29273;49.962;9.768;2023-02-20T07:32:12;100698.66;;;9.65;56.44
38780;BME280;29273;49.962;9.768;2023-02-20T07:34:38;100697.63;;;9.66;56.54
38780;BME280;29273;49.962;9.768;2023-02-20T07:37:03;100700.97;;;9.68;56.64
38780;BME280;29273;49.962;9.768;2023-02-20T07:39:29;100698.97;;;9.70;56.69
38780;BME280;29273;49.962;9.768;2023-02-20T07:41:55;100694.31;;;9.72;56.77
38780;BME280;29273;49.962;9.768;2023-02-20T07:44:44;100688.69;;;9.75;57.03
38780;BME280;29273;49.962;9.768;2023-02-20T07:47:14;100689.97;;;9.79;56.97
38780;BME280;29273;49.962;9.768;2023-02-20T07:49:40;100695.56;;;9.84;56.94
38780;BME280;29273;49.962;9.768;2023-02-20T07:52:05;100689.09;;;9.87;56.86
38780;BME280;29273;49.962;9.768;2023-02-20T07:54:31;100694.69;;;9.92;56.95
38780;BME280;29273;49.962;9.768;2023-02-20T07:56:56;100688.41;;;9.93;57.00
38780;BME280;29273;49.962;9.768;2023-02-20T07:59:22;100695.78;;;9.97;56.89
38780;BME280;29273;49.962;9.768;2023-02-20T08:01:48;100686.88;;;9.98;56.91
38780;BME280;29273;49.962;9.768;2023-02-20T08:04:14;100684.03;;;10.00;56.79
38780;BME280;29273;49.962;9.768;2023-02-20T08:06:39;100682.88;;;10.03;56.76
38780;BME280;29273;49.962;9.768;2023-02-20T08:09:04;100688.66;;;10.06;56.63
38780;BME280;29273;49.962;9.768;2023-02-20T08:11:33;100685.47;;;10.11;56.63
38780;BME280;29273;49.962;9.768;2023-02-20T08:13:59;100675.69;;;10.11;56.77
38780;BME280;29273;49.962;9.768;2023-02-20T08:16:25;100683.28;;;10.14;56.81
38780;BME280;29273;49.962;9.768;2023-02-20T08:18:51;100687.22;;;10.18;56.57
38780;BME280;29273;49.962;9.768;2023-02-20T08:21:17;100683.22;;;10.23;56.64
38780;BME280;29273;49.962;9.768;2023-02-20T08:23:43;100680.88;;;10.28;56.74
38780;BME280;29273;49.962;9.768;2023-02-20T08:26:09;100683.84;;;10.33;56.32
38780;BME280;29273;49.962;9.768;2023-02-20T08:28:34;100680.00;;;10.35;56.29
38780;BME280;29273;49.962;9.768;2023-02-20T08:31:00;100678.81;;;10.38;55.96
38780;BME280;29273;49.962;9.768;2023-02-20T08:33:25;100676.91;;;10.47;55.94
38780;BME280;29273;49.962;9.768;2023-02-20T08:35:51;100675.41;;;10.52;55.94
38780;BME280;29273;49.962;9.768;2023-02-20T08:38:27;100668.66;;;10.65;56.00
38780;BME280;29273;49.962;9.768;2023-02-20T08:40:54;100669.09;;;10.68;56.09
38780;BME280;29273;49.962;9.768;2023-02-20T08:43:19;100677.78;;;10.77;56.03
38780;BME280;29273;49.962;9.768;2023-02-20T08:45:45;100668.66;;;10.80;55.77
38780;BME280;29273;49.962;9.768;2023-02-20T08:48:10;100671.84;;;10.90;55.62
38780;BME280;29273;49.962;9.768;2023-02-20T08:50:36;100672.75;;;10.97;55.25
38780;BME280;29273;49.962;9.768;2023-02-20T08:53:01;100659.78;;;11.02;54.96
38780;BME280;29273;49.962;9.768;2023-02-20T08:55:27;100665.16;;;11.09;55.02
38780;BME280;29273;49.962;9.768;2023-02-20T08:57:53;100655.84;;;11.13;55.00
38780;BME280;29273;49.962;9.768;2023-02-20T09:00:20;100659.59;;;11.19;54.94
38780;BME280;29273;49.962;9.768;2023-02-20T09:02:46;100673.13;;;11.24;54.76
38780;BME280;29273;49.962;9.768;2023-02-20T09:05:12;100668.91;;;11.29;54.40
38780;BME280;29273;49.962;9.768;2023-02-20T09:07:38;100666.72;;;11.33;54.44
38780;BME280;29273;49.962;9.768;2023-02-20T09:10:04;100667.97;;;11.37;54.19
38780;BME280;29273;49.962;9.768;2023-02-20T09:12:30;100665.78;;;11.41;54.23
38780;BME280;29273;49.962;9.768;2023-02-20T09:14:56;100665.41;;;11.44;54.16
38780;BME280;29273;49.962;9.768;2023-02-20T09:17:25;100649.97;;;11.47;54.06
38780;BME280;29273;49.962;9.768;2023-02-20T09:19:51;100649.38;;;11.52;54.33
38780;BME280;29273;49.962;9.768;2023-02-20T09:22:21;100661.09;;;11.58;54.29
38780;BME280;29273;49.962;9.768;2023-02-20T09:24:47;100652.88;;;11.53;53.75
38780;BME280;29273;49.962;9.768;2023-02-20T09:27:12;100660.25;;;11.57;53.94
38780;BME280;29273;49.962;9.768;2023-02-20T09:29:38;100655.59;;;11.59;54.26
38780;BME280;29273;49.962;9.768;2023-02-20T09:32:05;100654.38;;;11.62;54.02
38780;BME280;29273;49.962;9.768;2023-02-20T09:34:30;100648.09;;;11.63;53.78
38780;BME280;29273;49.962;9.768;2023-02-20T09:36:56;100647.13;;;11.71;54.10
38780;BME280;29273;49.962;9.768;2023-02-20T09:39:21;100644.09;;;11.74;54.24
38780;BME280;29273;49.962;9.768;2023-02-20T09:41:57;100637.47;;;11.84;54.40
38780;BME280;29273;49.962;9.768;2023-02-20T09:44:31;100621.00;;;11.89;54.58
38780;BME280;29273;49.962;9.768;2023-02-20T09:47:26;100634.72;;;11.93;54.72
38780;BME280;29273;49.962;9.768;2023-02-20T09:50:00;100631.28;;;11.99;54.43
38780;BME280;29273;49.962;9.768;2023-02-20T09:52:28;100626.63;;;12.01;54.07
38780;BME280;29273;49.962;9.768;2023-02-20T09:55:02;100622.81;;;12.10;53.83
38780;BME280;29273;49.962;9.768;2023-02-20T09:57:29;100627.50;;;12.08;53.65
38780;BME280;29273;49.962;9.768;2023-02-20T10:00:13;100614.72;;;12.18;54.02
38780;BME280;29273;49.962;9.768;2023-02-20T10:02:50;100617.00;;;12.21;54.01
38780;BME280;29273;49.962;9.768;2023-02-20T10:05:24;100616.81;;;12.23;53.71
38780;BME280;29273;49.962;9.768;2023-02-20T10:07:50;100618.50;;;12.02;53.91
38780;BME280;29273;49.962;9.768;2023-02-20T10:15:27;100595.41;;;12.31;53.62
38780;BME280;29273;49.962;9.768;2023-02-20T10:18:08;100582.13;;;12.31;52.79
38780;BME280;29273;49.962;9.768;2023-02-20T10:21:22;100582.75;;;12.33;53.56
38780;BME280;29273;49.962;9.768;2023-02-20T10:26:26;100575.03;;;12.38;53.34
38780;BME280;29273;49.962;9.768;2023-02-20T10:28:55;100566.25;;;12.38;52.98
38780;BME280;29273;49.962;9.768;2023-02-20T10:31:32;100561.97;;;12.44;53.54
38780;BME280;29273;49.962;9.768;2023-02-20T10:34:05;100565.66;;;12.43;52.68
38780;BME280;29273;49.962;9.768;2023-02-20T10:36:37;100557.50;;;12.44;52.70
38780;BME280;29273;49.962;9.768;2023-02-20T10:39:11;100569.91;;;12.37;51.67
38780;BME280;29273;49.962;9.768;2023-02-20T10:44:39;100564.28;;;12.53;52.14
38780;BME280;29273;49.962;9.768;2023-02-20T10:47:20;100563.09;;;12.56;51.96
38780;BME280;29273;49.962;9.768;2023-02-20T10:52:51;100565.97;;;12.61;51.81
38780;BME280;29273;49.962;9.768;2023-02-20T10:58:10;100561.50;;;12.68;51.31
38780;BME280;29273;49.962;9.768;2023-02-20T11:00:41;100547.81;;;12.71;50.77
38780;BME280;29273;49.962;9.768;2023-02-20T11:03:23;100541.72;;;12.77;50.95
38780;BME280;29273;49.962;9.768;2023-02-20T11:05:53;100527.22;;;12.80;51.15
38780;BME280;29273;49.962;9.768;2023-02-20T11:08:19;100523.75;;;12.80;50.58
38780;BME280;29273;49.962;9.768;2023-02-20T11:10:52;100510.06;;;12.89;50.51
38780;BME280;29273;49.962;9.768;2023-02-20T11:13:22;100504.97;;;12.94;51.16
38780;BME280;29273;49.962;9.768;2023-02-20T11:15:52;100502.94;;;13.03;51.19
38780;BME280;29273;49.962;9.768;2023-02-20T11:18:29;100503.16;;;13.08;51.99
38780;BME280;29273;49.962;9.768;2023-02-20T11:20:56;100490.69;;;13.09;50.63
38780;BME280;29273;49.962;9.768;2023-02-20T11:28:42;100469.03;;;13.25;49.19
38780;BME280;29273;49.962;9.768;2023-02-20T11:31:08;100469.22;;;13.30;49.27
38780;BME280;29273;49.962;9.768;2023-02-20T11:33:36;100466.22;;;13.40;49.70
38780;BME280;29273;49.962;9.768;2023-02-20T11:38:38;100444.31;;;13.45;48.47
38780;BME280;29273;49.962;9.768;2023-02-20T11:41:10;100443.50;;;13.51;47.56
38780;BME280;29273;49.962;9.768;2023-02-20T11:43:39;100446.56;;;13.55;47.76
38780;BME280;29273;49.962;9.768;2023-02-20T11:46:21;100447.16;;;13.63;48.11
38780;BME280;29273;49.962;9.768;2023-02-20T11:51:45;100445.53;;;13.69;48.08
38780;BME280;29273;49.962;9.768;2023-02-20T11:54:24;100437.34;;;13.77;47.52
38780;BME280;29273;49.962;9.768;2023-02-20T11:57:00;100440.19;;;13.82;47.54
38780;BME280;29273;49.962;9.768;2023-02-20T12:04:44;100433.41;;;13.93;46.76
38780;BME280;29273;49.962;9.768;2023-02-20T12:07:27;100423.16;;;13.97;46.74
38780;BME280;29273;49.962;9.768;2023-02-20T12:09:56;100432.38;;;14.01;45.88
38780;BME280;29273;49.962;9.768;2023-02-20T12:12:26;100436.44;;;14.03;45.52
38780;BME280;29273;49.962;9.768;2023-02-20T12:14:53;100421.72;;;14.01;44.32
38780;BME280;29273;49.962;9.768;2023-02-20T12:20:01;100412.06;;;14.06;43.45
38780;BME280;29273;49.962;9.768;2023-02-20T12:22:36;100411.03;;;14.14;45.74
38780;BME280;29273;49.962;9.768;2023-02-20T12:25:16;100409.19;;;14.15;45.59
38780;BME280;29273;49.962;9.768;2023-02-20T12:36:26;100384.75;;;14.24;45.34
38780;BME280;29273;49.962;9.768;2023-02-20T12:39:11;100379.81;;;14.28;45.21
38780;BME280;29273;49.962;9.768;2023-02-20T12:44:33;100363.84;;;14.28;44.01
38780;BME280;29273;49.962;9.768;2023-02-20T12:52:39;100362.56;;;14.37;45.28
38780;BME280;29273;49.962;9.768;2023-02-20T12:55:43;100354.94;;;14.48;45.83
38780;BME280;29273;49.962;9.768;2023-02-20T13:00:54;100355.09;;;14.53;44.95
38780;BME280;29273;49.962;9.768;2023-02-20T13:03:32;100351.19;;;14.55;44.00
38780;BME280;29273;49.962;9.768;2023-02-20T13:06:00;100340.50;;;14.55;43.36
38780;BME280;29273;49.962;9.768;2023-02-20T13:08:32;100338.84;;;14.68;44.69
38780;BME280;29273;49.962;9.768;2023-02-20T13:11:01;100334.53;;;14.67;43.52
38780;BME280;29273;49.962;9.768;2023-02-20T13:13:36;100332.66;;;14.74;43.55
38780;BME280;29273;49.962;9.768;2023-02-20T13:16:12;100327.91;;;14.76;43.86
38780;BME280;29273;49.962;9.768;2023-02-20T13:18:53;100322.75;;;14.81;43.85
38780;BME280;29273;49.962;9.768;2023-02-20T13:21:27;100321.50;;;14.84;43.84
38780;BME280;29273;49.962;9.768;2023-02-20T13:24:11;100330.09;;;14.86;44.69
38780;BME280;29273;49.962;9.768;2023-02-20T13:26:52;100310.59;;;14.85;43.19
38780;BME280;29273;49.962;9.768;2023-02-20T13:29:23;100310.34;;;14.93;43.90
38780;BME280;29273;49.962;9.768;2023-02-20T13:31:52;100301.16;;;14.89;42.07
38780;BME280;29273;49.962;9.768;2023-02-20T13:36:48;100295.53;;;14.97;43.08
38780;BME280;29273;49.962;9.768;2023-02-20T13:47:01;100256.88;;;15.07;43.50
38780;BME280;29273;49.962;9.768;2023-02-20T13:52:46;100260.38;;;15.07;42.72
38780;BME280;29273;49.962;9.768;2023-02-20T13:55:19;100257.19;;;15.17;42.20
38780;BME280;29273;49.962;9.768;2023-02-20T14:02:47;100241.09;;;15.24;42.03
38780;BME280;29273;49.962;9.768;2023-02-20T14:05:20;100223.19;;;15.31;43.14
38780;BME280;29273;49.962;9.768;2023-02-20T14:07:46;100220.75;;;15.29;42.40
38780;BME280;29273;49.962;9.768;2023-02-20T14:10:16;100220.53;;;15.31;42.45
38780;BME280;29273;49.962;9.768;2023-02-20T14:12:44;100213.69;;;15.35;43.34
38780;BME280;29273;49.962;9.768;2023-02-20T14:15:09;100209.19;;;15.35;42.93
38780;BME280;29273;49.962;9.768;2023-02-20T14:17:35;100211.63;;;15.37;42.86
38780;BME280;29273;49.962;9.768;2023-02-20T14:20:05;100199.91;;;15.38;42.69
38780;BME280;29273;49.962;9.768;2023-02-20T14:22:33;100195.38;;;15.39;42.44
38780;BME280;29273;49.962;9.768;2023-02-20T14:27:38;100183.22;;;15.43;41.94
38780;BME280;29273;49.962;9.768;2023-02-20T14:30:21;100181.28;;;15.50;43.21
38780;BME280;29273;49.962;9.768;2023-02-20T14:32:50;100174.31;;;15.49;42.57
38780;BME280;29273;49.962;9.768;2023-02-20T14:35:38;100172.47;;;15.49;42.51
38780;BME280;29273;49.962;9.768;2023-02-20T14:40:42;100159.91;;;15.50;40.86
38780;BME280;29273;49.962;9.768;2023-02-20T14:43:19;100151.47;;;15.53;41.03
38780;BME280;29273;49.962;9.768;2023-02-20T14:45:58;100167.56;;;15.46;39.55
38780;BME280;29273;49.962;9.768;2023-02-20T14:48:28;100158.09;;;15.50;40.06